Terminal Aerodrome Forecast
Issued by NWS

Home | Current Version | Previous Version | Text Only | Print | Product List | Glossary On
Versions: 1 2 3 4 5 6 7 8 9 10 11 12 13 14 15 16 17 18 19 20 21 22 23 24 25 26 27 28 29
000
FTUS45 KGGW 050500
TAFGDV
TAF
KGDV 050522Z 0506/0606 27010KT P6SM VCSH BKN080
     FM050800 VRB05KT P6SM FEW100
     FM060100 09008KT P6SM -TSRA BKN700CB
      AMD LTD TO CLD VIS AND WIND=

USA.gov is the U.S. government's official web portal to all federal, state and local government web resources and services.